createdAt,value
2023-01-30T00:01:33.567Z,9.53
2023-01-30T00:04:01.178Z,11.73
2023-01-30T00:06:28.860Z,13.90
2023-01-30T00:08:56.089Z,8.43
2023-01-30T00:11:23.640Z,9.37
2023-01-30T00:13:51.978Z,7.70
2023-01-30T00:16:19.457Z,7.00
2023-01-30T00:18:46.854Z,7.67
2023-01-30T00:21:15.675Z,13.10
2023-01-30T00:23:43.841Z,10.70
2023-01-30T00:26:12.759Z,9.33
2023-01-30T00:28:40.699Z,11.37
2023-01-30T00:31:08.751Z,9.27
2023-01-30T00:33:39.529Z,7.83
2023-01-30T00:36:07.517Z,10.83
2023-01-30T00:38:34.737Z,9.37
2023-01-30T00:41:02.153Z,12.57
2023-01-30T00:43:49.023Z,12.17
2023-01-30T00:46:51.404Z,10.67
2023-01-30T00:49:19.226Z,9.27
2023-01-30T00:51:46.842Z,12.13
2023-01-30T00:54:14.295Z,8.80
2023-01-30T00:56:41.413Z,11.47
2023-01-30T00:59:08.769Z,12.13
2023-01-30T01:01:35.979Z,18.17
2023-01-30T01:04:03.346Z,14.43
2023-01-30T01:06:30.529Z,13.47
2023-01-30T01:08:57.860Z,8.73
2023-01-30T01:11:25.070Z,10.00
2023-01-30T01:13:59.161Z,10.23
2023-01-30T01:16:28.482Z,8.80
2023-01-30T01:18:55.839Z,11.97
2023-01-30T01:21:23.833Z,10.27
2023-01-30T01:23:54.734Z,16.07
2023-01-30T01:26:22.398Z,11.97
2023-01-30T01:28:50.021Z,14.00
2023-01-30T01:31:17.868Z,8.33
2023-01-30T01:33:45.088Z,16.10
2023-01-30T01:36:19.989Z,15.23
2023-01-30T01:38:58.104Z,13.77
2023-01-30T01:41:25.558Z,16.90
2023-01-30T01:44:14.447Z,11.47
2023-01-30T01:46:55.702Z,12.50
2023-01-30T01:49:35.756Z,9.90
2023-01-30T01:52:13.341Z,9.77
2023-01-30T01:55:07.459Z,9.67
2023-01-30T01:57:51.375Z,13.23
2023-01-30T02:00:22.113Z,11.07
2023-01-30T02:03:12.700Z,13.80
2023-01-30T02:05:48.432Z,12.43
2023-01-30T02:08:24.193Z,13.00
2023-01-30T02:11:37.598Z,17.63
2023-01-30T02:14:06.533Z,16.13
2023-01-30T02:16:33.666Z,19.47
2023-01-30T02:19:00.878Z,27.93
2023-01-30T02:22:30.669Z,13.47
2023-01-30T02:26:03.745Z,9.40
2023-01-30T02:29:34.284Z,15.30
2023-01-30T02:32:46.721Z,15.97
2023-01-30T02:36:03.840Z,25.27
2023-01-30T02:39:24.987Z,15.87
2023-01-30T02:42:32.148Z,18.97
2023-01-30T02:45:32.668Z,19.67
2023-01-30T02:48:06.650Z,16.23
2023-01-30T02:50:45.425Z,16.07
2023-01-30T02:53:13.283Z,25.23
2023-01-30T02:55:42.997Z,19.83
2023-01-30T02:58:11.385Z,17.30
2023-01-30T03:01:20.789Z,25.53
2023-01-30T03:04:11.916Z,15.47
2023-01-30T03:07:18.663Z,14.37
2023-01-30T03:10:02.011Z,18.27
2023-01-30T03:12:55.821Z,21.30
2023-01-30T03:15:50.896Z,19.37
2023-01-30T03:18:20.148Z,19.57
2023-01-30T03:20:47.926Z,16.37
2023-01-30T03:23:15.305Z,23.27
2023-01-30T03:25:44.848Z,12.73
2023-01-30T03:28:20.208Z,23.43
2023-01-30T03:30:47.775Z,23.53
2023-01-30T03:33:14.995Z,19.43
2023-01-30T03:35:43.287Z,14.40
2023-01-30T03:38:11.041Z,17.67
2023-01-30T03:40:39.224Z,19.10
2023-01-30T03:43:06.397Z,18.30
2023-01-30T03:45:33.822Z,13.33
2023-01-30T03:48:00.943Z,15.80
2023-01-30T03:50:29.405Z,17.90
2023-01-30T03:52:56.611Z,16.70
2023-01-30T03:55:27.013Z,17.23
2023-01-30T03:57:58.365Z,19.53
2023-01-30T04:00:25.815Z,17.77
2023-01-30T04:02:54.915Z,18.40
2023-01-30T04:05:22.209Z,12.87
2023-01-30T04:07:51.458Z,16.87
2023-01-30T04:10:20.172Z,16.27
2023-01-30T04:12:47.919Z,20.10
2023-01-30T04:15:15.274Z,15.60
2023-01-30T04:17:44.760Z,19.90
2023-01-30T04:20:12.138Z,15.17
2023-01-30T04:22:39.357Z,18.23
2023-01-30T04:25:06.868Z,18.43
2023-01-30T04:27:34.160Z,20.33
2023-01-30T04:30:01.362Z,18.70
2023-01-30T04:32:28.463Z,20.17
2023-01-30T04:34:55.610Z,11.47
2023-01-30T04:37:22.840Z,15.83
2023-01-30T04:39:50.213Z,14.17
2023-01-30T04:42:17.378Z,22.33
2023-01-30T04:44:44.512Z,17.47
2023-01-30T04:47:11.946Z,16.40
2023-01-30T04:49:39.122Z,13.40
2023-01-30T04:52:06.513Z,15.47
2023-01-30T04:54:36.111Z,12.90
2023-01-30T04:57:03.657Z,18.37
2023-01-30T04:59:30.727Z,19.67
2023-01-30T05:01:57.925Z,15.47
2023-01-30T05:04:25.107Z,26.83
2023-01-30T05:06:52.190Z,20.37
2023-01-30T05:09:19.601Z,17.40
2023-01-30T05:11:46.817Z,24.17
2023-01-30T05:14:14.075Z,32.83
2023-01-30T05:16:41.923Z,21.33
2023-01-30T05:19:12.633Z,19.00
2023-01-30T05:21:40.035Z,18.67
2023-01-30T05:24:07.675Z,24.23
2023-01-30T05:26:34.816Z,35.83
2023-01-30T05:29:02.707Z,22.67
2023-01-30T05:31:29.840Z,28.30
2023-01-30T05:33:57.461Z,24.67
2023-01-30T05:36:24.988Z,24.03
2023-01-30T05:38:52.200Z,18.23
2023-01-30T05:41:19.725Z,28.63
2023-01-30T05:43:51.168Z,21.30
2023-01-30T05:46:18.601Z,23.90
2023-01-30T05:48:45.918Z,29.67
2023-01-30T05:51:20.656Z,19.23
2023-01-30T05:53:49.028Z,18.50
2023-01-30T05:56:17.310Z,27.57
2023-01-30T05:58:50.681Z,28.63
2023-01-30T06:01:18.401Z,24.63
2023-01-30T06:03:48.174Z,32.70
2023-01-30T06:06:15.762Z,28.10
2023-01-30T06:08:43.187Z,28.40
2023-01-30T06:11:15.780Z,26.93
2023-01-30T06:13:43.807Z,35.40
2023-01-30T06:16:17.633Z,28.90
2023-01-30T06:18:47.494Z,39.10
2023-01-30T06:21:16.335Z,24.07
2023-01-30T06:23:43.794Z,37.53
2023-01-30T06:26:11.368Z,36.93
2023-01-30T06:28:38.707Z,37.30
2023-01-30T06:31:09.445Z,30.13
2023-01-30T06:33:37.452Z,23.00
2023-01-30T06:36:05.383Z,33.03
2023-01-30T06:38:32.541Z,18.73
2023-01-30T06:40:59.716Z,26.03
2023-01-30T06:43:26.998Z,33.37
2023-01-30T06:45:54.309Z,35.13
2023-01-30T06:48:21.553Z,24.03
2023-01-30T06:50:51.487Z,22.37
2023-01-30T06:53:19.491Z,22.07
2023-01-30T06:55:47.043Z,26.30
2023-01-30T06:58:15.520Z,27.33
2023-01-30T07:00:43.828Z,21.93
2023-01-30T07:03:17.381Z,28.27
2023-01-30T07:05:47.822Z,27.90
2023-01-30T07:08:16.970Z,28.93
2023-01-30T07:10:45.413Z,18.67
2023-01-30T07:13:13.488Z,30.30
2023-01-30T07:15:40.964Z,20.50
2023-01-30T07:18:08.302Z,15.73
2023-01-30T07:20:35.582Z,17.53
2023-01-30T07:23:03.511Z,29.03
2023-01-30T07:25:34.263Z,24.70
2023-01-30T07:28:03.097Z,20.27
2023-01-30T07:30:36.066Z,19.50
2023-01-30T07:33:06.642Z,25.67
2023-01-30T07:35:37.433Z,20.27
2023-01-30T07:38:06.006Z,19.93
2023-01-30T07:40:33.836Z,14.43
2023-01-30T07:43:12.626Z,20.40
2023-01-30T07:45:48.821Z,18.37
2023-01-30T07:48:19.627Z,18.97
2023-01-30T07:50:47.288Z,18.40
2023-01-30T07:53:18.696Z,22.27
2023-01-30T07:55:47.422Z,27.73
2023-01-30T07:58:16.106Z,25.07
2023-01-30T08:00:46.891Z,17.30
2023-01-30T08:03:17.017Z,23.27
2023-01-30T08:05:47.090Z,20.47
2023-01-30T08:08:14.838Z,17.00
2023-01-30T08:10:43.135Z,22.30
2023-01-30T08:13:10.413Z,8.40
2023-01-30T08:15:37.907Z,17.77
2023-01-30T08:18:07.221Z,17.97
2023-01-30T08:20:34.644Z,17.07
2023-01-30T08:23:05.756Z,14.47
2023-01-30T08:25:33.173Z,14.40
2023-01-30T08:28:00.586Z,13.73
2023-01-30T08:30:30.501Z,16.83
2023-01-30T08:32:58.639Z,16.30
2023-01-30T08:35:25.910Z,19.43
2023-01-30T08:37:53.162Z,15.77
2023-01-30T08:40:20.835Z,15.00
2023-01-30T08:42:48.137Z,17.60
2023-01-30T08:45:15.556Z,15.63
2023-01-30T08:47:43.038Z,8.83
2023-01-30T08:50:11.453Z,16.97
2023-01-30T08:52:39.030Z,12.93
2023-01-30T08:55:07.237Z,16.93
2023-01-30T08:57:34.703Z,21.60
2023-01-30T09:00:02.491Z,16.67
2023-01-30T09:02:29.784Z,21.67
2023-01-30T09:04:57.057Z,19.97
2023-01-30T09:07:24.327Z,19.97
2023-01-30T09:09:52.101Z,14.33
2023-01-30T09:12:19.348Z,20.23
2023-01-30T09:14:46.577Z,12.43
2023-01-30T09:17:14.823Z,15.63
2023-01-30T09:19:42.055Z,14.03
2023-01-30T09:22:09.537Z,16.17
2023-01-30T09:24:37.148Z,11.90
2023-01-30T09:27:07.247Z,11.33
2023-01-30T09:29:34.545Z,14.00
2023-01-30T09:32:01.921Z,14.50
2023-01-30T09:34:29.231Z,14.40
2023-01-30T09:37:04.399Z,10.37
2023-01-30T09:39:31.829Z,12.13
2023-01-30T09:42:04.672Z,12.40
2023-01-30T09:45:21.959Z,15.87
2023-01-30T09:48:13.618Z,11.37
2023-01-30T09:51:40.037Z,10.63
2023-01-30T09:54:45.365Z,6.17
2023-01-30T09:57:23.897Z,7.90
2023-01-30T10:00:19.720Z,14.77
2023-01-30T10:03:09.259Z,7.97
2023-01-30T10:06:04.844Z,8.00
2023-01-30T10:09:25.186Z,8.27
2023-01-30T10:12:37.768Z,5.73
2023-01-30T10:15:23.685Z,9.40
2023-01-30T10:18:09.053Z,7.33
2023-01-30T10:21:21.843Z,8.43
2023-01-30T10:24:34.168Z,2.53
2023-01-30T10:27:03.727Z,10.97
2023-01-30T10:29:39.990Z,9.50
2023-01-30T10:32:28.879Z,11.57
2023-01-30T10:35:06.238Z,10.13
2023-01-30T10:37:45.754Z,8.40
2023-01-30T10:40:49.175Z,13.13
2023-01-30T10:43:32.862Z,15.37
2023-01-30T10:46:17.840Z,18.03
2023-01-30T10:49:16.784Z,14.30
2023-01-30T10:52:16.976Z,8.17
2023-01-30T10:55:12.129Z,15.00
2023-01-30T10:58:06.019Z,11.53
2023-01-30T11:00:43.262Z,11.33
2023-01-30T11:03:44.266Z,14.40
2023-01-30T11:06:26.498Z,10.20
2023-01-30T11:08:55.744Z,8.90
2023-01-30T11:11:51.381Z,16.20
2023-01-30T11:14:18.697Z,8.43
2023-01-30T11:16:57.625Z,12.53
2023-01-30T11:19:34.405Z,15.70
2023-01-30T11:22:05.617Z,10.57
2023-01-30T11:24:41.135Z,11.47
2023-01-30T11:27:36.244Z,13.60
2023-01-30T11:30:37.445Z,11.57
2023-01-30T11:33:23.010Z,12.17
2023-01-30T11:36:23.683Z,11.77
2023-01-30T11:39:28.676Z,14.10
2023-01-30T11:41:55.575Z,13.47
2023-01-30T11:44:33.816Z,15.83
2023-01-30T11:48:29.409Z,15.87
2023-01-30T11:51:06.866Z,14.40
2023-01-30T11:53:59.198Z,11.17
2023-01-30T11:56:44.962Z,18.40
2023-01-30T11:59:34.622Z,16.63
2023-01-30T12:02:20.164Z,16.87
2023-01-30T12:04:59.497Z,14.97
2023-01-30T12:07:35.196Z,11.63
2023-01-30T12:10:25.212Z,8.67
2023-01-30T12:12:56.914Z,15.00
2023-01-30T12:15:33.823Z,2.50
2023-01-30T12:18:28.313Z,10.93
2023-01-30T12:21:26.471Z,11.23
2023-01-30T12:24:31.101Z,4.90
2023-01-30T12:27:47.165Z,12.03
2023-01-30T12:30:58.255Z,11.97
2023-01-30T12:33:33.279Z,7.87
2023-01-30T12:36:47.631Z,10.07
2023-01-30T12:39:58.053Z,6.10
2023-01-30T12:43:10.864Z,9.73
2023-01-30T12:46:54.908Z,9.70
2023-01-30T12:49:50.457Z,16.27
2023-01-30T12:52:57.385Z,9.83
2023-01-30T12:56:41.422Z,14.03
2023-01-30T12:59:33.405Z,11.70
2023-01-30T13:02:40.375Z,15.13
2023-01-30T13:05:32.329Z,10.80
2023-01-30T13:08:20.605Z,16.00
2023-01-30T13:11:14.818Z,12.43
2023-01-30T13:14:37.990Z,11.50
2023-01-30T13:17:24.765Z,6.37
2023-01-30T13:20:17.890Z,6.77
2023-01-30T13:23:16.154Z,7.43
2023-01-30T13:26:16.260Z,9.20
2023-01-30T13:29:20.703Z,4.90
2023-01-30T13:31:56.865Z,9.57
2023-01-30T13:34:44.969Z,4.97
2023-01-30T13:37:36.017Z,9.13
2023-01-30T13:40:36.074Z,5.57
2023-01-30T13:43:13.667Z,9.03
2023-01-30T13:45:48.248Z,7.83
2023-01-30T13:48:49.338Z,13.63
2023-01-30T13:52:03.814Z,12.90
2023-01-30T13:55:12.997Z,12.10
2023-01-30T13:58:08.756Z,2.47
2023-01-30T14:00:37.010Z,8.47
2023-01-30T14:03:04.064Z,6.47
2023-01-30T14:06:00.673Z,5.17
2023-01-30T14:08:44.754Z,5.93
2023-01-30T14:11:36.528Z,7.97
2023-01-30T14:14:29.775Z,5.00
2023-01-30T14:17:16.517Z,6.23
2023-01-30T14:19:59.571Z,5.63
2023-01-30T14:23:18.432Z,7.07
2023-01-30T14:25:53.051Z,6.20
2023-01-30T14:28:20.426Z,4.03
2023-01-30T14:30:55.941Z,3.80
2023-01-30T14:33:28.722Z,4.43
2023-01-30T14:35:58.847Z,4.47
2023-01-30T14:38:38.293Z,6.23
2023-01-30T14:41:05.365Z,3.63
2023-01-30T14:43:42.408Z,6.23
2023-01-30T14:46:32.571Z,3.53
2023-01-30T14:49:29.427Z,2.83
2023-01-30T14:51:56.904Z,3.77
2023-01-30T14:54:41.898Z,3.30
2023-01-30T14:57:32.762Z,2.90
2023-01-30T15:00:19.779Z,3.50
2023-01-30T15:02:58.309Z,3.10
2023-01-30T15:05:38.947Z,5.53
2023-01-30T15:08:26.706Z,8.07
2023-01-30T15:11:26.268Z,4.03
2023-01-30T15:14:07.524Z,7.27
2023-01-30T15:17:24.391Z,6.03
2023-01-30T15:20:17.738Z,5.33
2023-01-30T15:23:20.359Z,3.13
2023-01-30T15:26:15.380Z,4.63
2023-01-30T15:29:02.820Z,2.77
2023-01-30T15:31:29.827Z,6.37
2023-01-30T15:33:57.390Z,4.63
2023-01-30T15:36:29.495Z,6.57
2023-01-30T15:39:16.826Z,7.10
2023-01-30T15:41:44.503Z,5.80
2023-01-30T15:44:43.391Z,3.83
2023-01-30T15:48:01.655Z,6.80
2023-01-30T15:50:28.787Z,3.43
2023-01-30T15:52:57.980Z,5.47
2023-01-30T15:55:34.008Z,3.33
2023-01-30T15:58:19.585Z,8.03
2023-01-30T16:00:51.753Z,8.07
2023-01-30T16:03:28.846Z,5.67
2023-01-30T16:05:58.415Z,5.13
2023-01-30T16:08:29.073Z,5.93
2023-01-30T16:10:56.799Z,5.17
2023-01-30T16:13:25.159Z,2.80
2023-01-30T16:16:02.953Z,5.83
2023-01-30T16:18:49.523Z,6.50
2023-01-30T16:21:35.262Z,8.33
2023-01-30T16:24:14.033Z,9.63
2023-01-30T16:26:46.418Z,8.43
2023-01-30T16:29:32.351Z,5.07
2023-01-30T16:31:59.940Z,6.53
2023-01-30T16:34:37.445Z,12.23
2023-01-30T16:37:27.141Z,12.47
2023-01-30T16:40:16.845Z,7.33
2023-01-30T16:42:56.981Z,9.83
2023-01-30T16:45:53.069Z,9.43
2023-01-30T16:48:19.993Z,9.63
2023-01-30T16:51:33.428Z,5.40
2023-01-30T16:54:04.598Z,9.20
2023-01-30T16:56:35.989Z,10.50
2023-01-30T16:59:03.879Z,9.60
2023-01-30T17:01:41.291Z,9.40
2023-01-30T17:04:21.273Z,6.60
2023-01-30T17:07:04.687Z,11.20
2023-01-30T17:09:38.831Z,7.37
2023-01-30T17:12:25.677Z,16.83
2023-01-30T17:15:21.869Z,11.17
2023-01-30T17:17:49.380Z,6.47
2023-01-30T17:20:19.644Z,10.40
2023-01-30T17:22:52.327Z,9.67
2023-01-30T17:25:42.968Z,13.17
2023-01-30T17:28:21.256Z,16.87
2023-01-30T17:30:50.441Z,8.50
2023-01-30T17:33:17.627Z,14.83
2023-01-30T17:35:45.692Z,6.80
2023-01-30T17:38:13.101Z,15.30
2023-01-30T17:40:42.826Z,8.80
2023-01-30T17:43:11.541Z,12.63
2023-01-30T17:45:38.667Z,11.33
2023-01-30T17:48:06.368Z,6.80
2023-01-30T17:50:33.313Z,4.50
2023-01-30T17:53:00.221Z,8.53
2023-01-30T17:55:27.194Z,14.77
2023-01-30T17:57:54.970Z,17.07
2023-01-30T18:00:22.988Z,8.27
2023-01-30T18:02:50.131Z,8.80
2023-01-30T18:05:17.138Z,11.43
2023-01-30T18:07:44.641Z,19.50
2023-01-30T18:10:20.160Z,16.13
2023-01-30T18:12:47.308Z,15.33
2023-01-30T18:15:15.999Z,10.43
2023-01-30T18:17:47.837Z,14.80
2023-01-30T18:20:19.850Z,13.60
2023-01-30T18:22:47.152Z,13.80
2023-01-30T18:25:15.529Z,11.50
2023-01-30T18:27:44.584Z,15.07
2023-01-30T18:30:17.261Z,17.20
2023-01-30T18:32:53.695Z,14.03
2023-01-30T18:35:22.981Z,15.97
2023-01-30T18:37:50.522Z,17.73
2023-01-30T18:40:20.144Z,22.33
2023-01-30T18:42:47.651Z,18.47
2023-01-30T18:45:17.280Z,20.87
2023-01-30T18:47:44.198Z,16.47
2023-01-30T18:50:11.750Z,18.97
2023-01-30T18:52:40.982Z,23.23
2023-01-30T18:55:08.588Z,21.63
2023-01-30T18:57:35.514Z,18.93
2023-01-30T19:00:02.889Z,16.97
2023-01-30T19:02:29.935Z,22.60
2023-01-30T19:04:56.927Z,19.40
2023-01-30T19:07:23.976Z,24.17
2023-01-30T19:09:50.859Z,21.20
2023-01-30T19:12:36.662Z,21.87
2023-01-30T19:15:05.045Z,22.90
2023-01-30T19:17:31.975Z,20.80
2023-01-30T19:20:01.814Z,23.20
2023-01-30T19:22:28.722Z,20.10
2023-01-30T19:24:55.788Z,25.60
2023-01-30T19:27:23.549Z,13.23
2023-01-30T19:29:50.583Z,22.50
2023-01-30T19:32:17.586Z,17.37
2023-01-30T19:34:49.889Z,20.90
2023-01-30T19:37:16.979Z,18.50
2023-01-30T19:39:43.913Z,19.67
2023-01-30T19:42:10.847Z,21.90
2023-01-30T19:44:37.789Z,17.67
2023-01-30T19:47:04.762Z,26.93
2023-01-30T19:49:33.531Z,21.63
2023-01-30T19:52:02.625Z,19.23
2023-01-30T19:54:29.823Z,22.20
2023-01-30T19:56:56.887Z,19.50
2023-01-30T19:59:27.200Z,13.13
2023-01-30T20:01:54.703Z,16.83
2023-01-30T20:04:21.644Z,23.70
2023-01-30T20:06:49.762Z,14.40
2023-01-30T20:09:17.559Z,19.20
2023-01-30T20:11:44.856Z,25.03
2023-01-30T20:14:12.095Z,19.47
2023-01-30T20:16:40.049Z,17.03
2023-01-30T20:19:17.024Z,22.63
2023-01-30T20:21:45.123Z,20.87
2023-01-30T20:24:16.516Z,26.73
2023-01-30T20:26:47.132Z,18.20
2023-01-30T20:29:17.395Z,20.00
2023-01-30T20:31:44.570Z,16.93
2023-01-30T20:34:14.206Z,22.13
2023-01-30T20:36:41.856Z,26.73
2023-01-30T20:39:09.549Z,9.60
2023-01-30T20:41:38.627Z,18.07
2023-01-30T20:44:11.235Z,11.87
2023-01-30T20:46:42.532Z,20.00
2023-01-30T20:49:23.055Z,20.43
2023-01-30T20:51:52.892Z,17.30
2023-01-30T20:54:23.363Z,21.00
2023-01-30T20:56:53.845Z,16.00
2023-01-30T20:59:24.587Z,15.67
2023-01-30T21:01:53.201Z,24.20
2023-01-30T21:04:24.538Z,15.80
2023-01-30T21:06:51.970Z,19.07
2023-01-30T21:09:23.393Z,19.77
2023-01-30T21:11:52.990Z,15.07
2023-01-30T21:14:20.066Z,16.90
2023-01-30T21:16:47.622Z,15.50
2023-01-30T21:19:17.163Z,17.53
2023-01-30T21:21:53.302Z,15.63
2023-01-30T21:24:28.233Z,8.43
2023-01-30T21:26:56.280Z,17.90
2023-01-30T21:29:28.039Z,14.23
2023-01-30T21:31:57.405Z,17.43
2023-01-30T21:34:24.497Z,14.67
2023-01-30T21:37:10.112Z,10.50
2023-01-30T21:39:55.795Z,16.70
2023-01-30T21:42:41.538Z,19.33
2023-01-30T21:45:08.932Z,15.40
2023-01-30T21:47:36.751Z,15.33
2023-01-30T21:50:04.411Z,10.97
2023-01-30T21:52:33.315Z,18.57
2023-01-30T21:55:00.432Z,16.63
2023-01-30T21:57:27.426Z,15.07
2023-01-30T21:59:54.363Z,12.40
2023-01-30T22:02:21.431Z,19.27
2023-01-30T22:04:48.851Z,14.87
2023-01-30T22:07:18.860Z,11.60
2023-01-30T22:09:46.326Z,11.83
2023-01-30T22:12:14.542Z,17.30
2023-01-30T22:14:41.748Z,13.07
2023-01-30T22:17:11.878Z,14.90
2023-01-30T22:19:38.903Z,20.60
2023-01-30T22:22:06.710Z,17.27
2023-01-30T22:24:33.834Z,15.57
2023-01-30T22:27:00.914Z,15.97
2023-01-30T22:29:29.065Z,16.80
2023-01-30T22:31:56.141Z,14.73
2023-01-30T22:34:23.107Z,18.70
2023-01-30T22:36:50.813Z,13.13
2023-01-30T22:39:17.860Z,16.43
2023-01-30T22:41:44.832Z,14.23
2023-01-30T22:44:11.837Z,15.47
2023-01-30T22:46:41.548Z,13.20
2023-01-30T22:49:09.773Z,22.83
2023-01-30T22:51:41.033Z,18.07
2023-01-30T22:54:16.732Z,15.80
2023-01-30T22:56:48.774Z,12.80
2023-01-30T22:59:16.058Z,20.47
2023-01-30T23:01:47.661Z,16.03
2023-01-30T23:04:21.156Z,18.53
2023-01-30T23:06:51.338Z,16.50
2023-01-30T23:09:23.207Z,20.53
2023-01-30T23:12:14.280Z,18.97
2023-01-30T23:14:42.746Z,17.63
2023-01-30T23:17:29.089Z,16.80
2023-01-30T23:19:56.941Z,18.47
2023-01-30T23:22:24.272Z,20.77
2023-01-30T23:24:51.718Z,17.83
2023-01-30T23:27:21.043Z,14.90
2023-01-30T23:29:48.390Z,17.23
2023-01-30T23:32:18.977Z,16.23
2023-01-30T23:34:47.639Z,13.53
2023-01-30T23:37:15.676Z,14.53
2023-01-30T23:39:42.838Z,22.03
2023-01-30T23:42:09.967Z,19.40
2023-01-30T23:44:36.928Z,13.83
2023-01-30T23:47:03.949Z,17.43
2023-01-30T23:49:30.870Z,18.50
2023-01-30T23:51:57.858Z,20.37
2023-01-30T23:54:25.010Z,10.93
2023-01-30T23:56:53.952Z,21.70
2023-01-30T23:59:23.948Z,16.77
